sensor_id;sensor_type;location;lat;lon;timestamp;pressure;altitude;pressure_sealevel;temperature;humidity
54306;BME280;66145;45.188;5.712;2023-10-13T00:01:53;99609.25;;;19.71;65.00
54306;BME280;66145;45.188;5.712;2023-10-13T00:04:20;99613.47;;;19.77;64.78
54306;BME280;66145;45.188;5.712;2023-10-13T00:06:53;99607.91;;;19.68;64.91
54306;BME280;66145;45.188;5.712;2023-10-13T00:09:19;99631.72;;;19.82;64.94
54306;BME280;66145;45.188;5.712;2023-10-13T00:11:50;99615.22;;;19.73;64.83
54306;BME280;66145;45.188;5.712;2023-10-13T00:14:17;99614.41;;;19.72;65.12
54306;BME280;66145;45.188;5.712;2023-10-13T00:16:44;99631.94;;;19.85;65.21
54306;BME280;66145;45.188;5.712;2023-10-13T00:19:32;99617.31;;;19.76;64.94
54306;BME280;66145;45.188;5.712;2023-10-13T00:22:08;99621.69;;;19.77;64.80
54306;BME280;66145;45.188;5.712;2023-10-13T00:24:38;99629.50;;;19.84;64.94
54306;BME280;66145;45.188;5.712;2023-10-13T00:27:14;99630.59;;;19.83;64.76
54306;BME280;66145;45.188;5.712;2023-10-13T00:29:59;99633.69;;;19.81;65.17
54306;BME280;66145;45.188;5.712;2023-10-13T00:32:52;99637.72;;;19.84;64.78
54306;BME280;66145;45.188;5.712;2023-10-13T00:35:27;99631.56;;;19.78;65.13
54306;BME280;66145;45.188;5.712;2023-10-13T00:38:05;99629.13;;;19.76;65.12
54306;BME280;66145;45.188;5.712;2023-10-13T00:40:44;99590.75;;;19.63;65.32
54306;BME280;66145;45.188;5.712;2023-10-13T00:43:17;99615.22;;;19.73;64.93
54306;BME280;66145;45.188;5.712;2023-10-13T00:45:57;99624.75;;;19.75;65.16
54306;BME280;66145;45.188;5.712;2023-10-13T00:48:42;99628.19;;;19.81;65.31
54306;BME280;66145;45.188;5.712;2023-10-13T00:51:17;99629.00;;;19.82;64.94
54306;BME280;66145;45.188;5.712;2023-10-13T00:53:47;99619.78;;;19.78;64.74
54306;BME280;66145;45.188;5.712;2023-10-13T00:56:14;99627.25;;;19.86;65.44
54306;BME280;66145;45.188;5.712;2023-10-13T00:58:48;99626.16;;;19.87;65.40
54306;BME280;66145;45.188;5.712;2023-10-13T01:01:17;99626.75;;;19.84;65.38
54306;BME280;66145;45.188;5.712;2023-10-13T01:03:47;99617.22;;;19.81;65.38
54306;BME280;66145;45.188;5.712;2023-10-13T01:06:15;99612.34;;;19.78;65.50
54306;BME280;66145;45.188;5.712;2023-10-13T01:08:42;99629.19;;;19.85;65.21
54306;BME280;66145;45.188;5.712;2023-10-13T01:11:09;99609.31;;;19.80;65.79
54306;BME280;66145;45.188;5.712;2023-10-13T01:13:35;99619.84;;;19.86;65.50
54306;BME280;66145;45.188;5.712;2023-10-13T01:16:06;99619.00;;;19.86;65.51
54306;BME280;66145;45.188;5.712;2023-10-13T01:18:33;99611.91;;;19.85;65.57
54306;BME280;66145;45.188;5.712;2023-10-13T01:21:05;99616.00;;;19.87;65.82
54306;BME280;66145;45.188;5.712;2023-10-13T01:23:31;99596.38;;;19.80;65.99
54306;BME280;66145;45.188;5.712;2023-10-13T01:26:03;99610.50;;;19.87;65.62
54306;BME280;66145;45.188;5.712;2023-10-13T01:28:31;99606.06;;;19.78;65.87
54306;BME280;66145;45.188;5.712;2023-10-13T01:31:12;99598.78;;;19.82;66.18
54306;BME280;66145;45.188;5.712;2023-10-13T01:33:58;99614.88;;;19.88;66.05
54306;BME280;66145;45.188;5.712;2023-10-13T01:36:25;99620.03;;;19.90;65.33
54306;BME280;66145;45.188;5.712;2023-10-13T01:38:51;99612.13;;;19.88;65.50
54306;BME280;66145;45.188;5.712;2023-10-13T01:41:18;99599.63;;;19.82;66.75
54306;BME280;66145;45.188;5.712;2023-10-13T01:43:43;99592.00;;;19.79;66.76
54306;BME280;66145;45.188;5.712;2023-10-13T01:46:10;99606.31;;;19.90;66.92
54306;BME280;66145;45.188;5.712;2023-10-13T01:48:39;99599.22;;;19.89;66.58
54306;BME280;66145;45.188;5.712;2023-10-13T01:51:05;99582.97;;;19.79;65.71
54306;BME280;66145;45.188;5.712;2023-10-13T01:53:35;99571.50;;;19.76;66.46
54306;BME280;66145;45.188;5.712;2023-10-13T01:56:02;99597.47;;;19.93;67.45
54306;BME280;66145;45.188;5.712;2023-10-13T01:58:35;99578.97;;;19.85;66.98
54306;BME280;66145;45.188;5.712;2023-10-13T02:01:01;99574.91;;;19.82;67.04
54306;BME280;66145;45.188;5.712;2023-10-13T02:03:26;99571.56;;;19.85;66.42
54306;BME280;66145;45.188;5.712;2023-10-13T02:05:55;99579.19;;;19.88;66.90
54306;BME280;66145;45.188;5.712;2023-10-13T02:08:23;99584.03;;;19.91;67.45
54306;BME280;66145;45.188;5.712;2023-10-13T02:13:16;99574.59;;;19.84;67.59
54306;BME280;66145;45.188;5.712;2023-10-13T02:15:45;99563.94;;;19.82;67.32
54306;BME280;66145;45.188;5.712;2023-10-13T02:18:15;99578.16;;;19.84;67.07
54306;BME280;66145;45.188;5.712;2023-10-13T02:20:55;99580.00;;;19.89;66.14
54306;BME280;66145;45.188;5.712;2023-10-13T02:23:22;99575.91;;;19.86;68.14
54306;BME280;66145;45.188;5.712;2023-10-13T02:25:48;99586.97;;;19.95;66.07
54306;BME280;66145;45.188;5.712;2023-10-13T02:28:17;99576.22;;;19.85;68.00
54306;BME280;66145;45.188;5.712;2023-10-13T02:30:47;99582.63;;;19.94;67.62
54306;BME280;66145;45.188;5.712;2023-10-13T02:33:18;99580.50;;;19.91;67.55
54306;BME280;66145;45.188;5.712;2023-10-13T02:35:46;99554.19;;;19.76;66.88
54306;BME280;66145;45.188;5.712;2023-10-13T02:38:22;99586.53;;;20.02;66.44
54306;BME280;66145;45.188;5.712;2023-10-13T02:41:14;99582.16;;;20.01;66.88
54306;BME280;66145;45.188;5.712;2023-10-13T02:44:06;99578.59;;;20.00;66.69
54306;BME280;66145;45.188;5.712;2023-10-13T02:46:33;99559.97;;;19.88;66.95
54306;BME280;66145;45.188;5.712;2023-10-13T02:49:02;99570.00;;;19.93;66.88
54306;BME280;66145;45.188;5.712;2023-10-13T02:51:35;99582.47;;;19.99;66.63
54306;BME280;66145;45.188;5.712;2023-10-13T02:54:01;99572.31;;;20.00;67.38
54306;BME280;66145;45.188;5.712;2023-10-13T02:56:35;99562.06;;;19.91;66.77
54306;BME280;66145;45.188;5.712;2023-10-13T02:59:02;99570.84;;;20.02;66.42
54306;BME280;66145;45.188;5.712;2023-10-13T03:01:34;99566.31;;;19.98;66.12
54306;BME280;66145;45.188;5.712;2023-10-13T03:04:01;99557.41;;;19.92;66.31
54306;BME280;66145;45.188;5.712;2023-10-13T03:06:28;99576.50;;;20.06;66.56
54306;BME280;66145;45.188;5.712;2023-10-13T03:09:01;99560.81;;;19.98;66.13
54306;BME280;66145;45.188;5.712;2023-10-13T03:11:43;99561.63;;;19.98;65.96
54306;BME280;66145;45.188;5.712;2023-10-13T03:14:13;99557.91;;;19.94;66.61
54306;BME280;66145;45.188;5.712;2023-10-13T03:16:52;99567.09;;;19.98;66.43
54306;BME280;66145;45.188;5.712;2023-10-13T03:19:18;99568.44;;;20.01;66.48
54306;BME280;66145;45.188;5.712;2023-10-13T03:21:45;99562.44;;;19.99;65.95
54306;BME280;66145;45.188;5.712;2023-10-13T03:24:18;99565.97;;;19.99;66.56
54306;BME280;66145;45.188;5.712;2023-10-13T03:26:47;99566.81;;;20.00;66.47
54306;BME280;66145;45.188;5.712;2023-10-13T03:29:17;99559.69;;;19.99;66.14
54306;BME280;66145;45.188;5.712;2023-10-13T03:31:49;99551.59;;;19.94;66.07
54306;BME280;66145;45.188;5.712;2023-10-13T03:34:31;99571.47;;;19.99;66.02
54306;BME280;66145;45.188;5.712;2023-10-13T03:36:56;99559.53;;;19.95;66.47
54306;BME280;66145;45.188;5.712;2023-10-13T03:39:22;99571.97;;;20.01;65.82
54306;BME280;66145;45.188;5.712;2023-10-13T03:41:53;99564.69;;;19.97;65.62
54306;BME280;66145;45.188;5.712;2023-10-13T03:44:19;99566.16;;;19.94;65.74
54306;BME280;66145;45.188;5.712;2023-10-13T03:46:46;99565.53;;;19.97;66.30
54306;BME280;66145;45.188;5.712;2023-10-13T03:49:16;99558.06;;;19.98;65.77
54306;BME280;66145;45.188;5.712;2023-10-13T03:51:47;99559.88;;;20.02;66.21
54306;BME280;66145;45.188;5.712;2023-10-13T03:54:14;99541.22;;;19.90;66.15
54306;BME280;66145;45.188;5.712;2023-10-13T03:56:42;99539.63;;;19.89;66.02
54306;BME280;66145;45.188;5.712;2023-10-13T03:59:10;99542.34;;;19.89;65.99
54306;BME280;66145;45.188;5.712;2023-10-13T04:01:42;99540.22;;;19.86;65.94
54306;BME280;66145;45.188;5.712;2023-10-13T04:04:17;99558.41;;;19.96;65.84
54306;BME280;66145;45.188;5.712;2023-10-13T04:06:55;99544.63;;;19.87;65.35
54306;BME280;66145;45.188;5.712;2023-10-13T04:09:41;99564.69;;;19.97;65.76
54306;BME280;66145;45.188;5.712;2023-10-13T04:12:12;99556.78;;;19.95;66.02
54306;BME280;66145;45.188;5.712;2023-10-13T04:14:40;99558.19;;;19.93;65.80
54306;BME280;66145;45.188;5.712;2023-10-13T04:17:25;99541.06;;;19.87;66.05
54306;BME280;66145;45.188;5.712;2023-10-13T04:19:58;99557.09;;;19.94;65.91
54306;BME280;66145;45.188;5.712;2023-10-13T04:25:12;99554.66;;;19.92;65.94
54306;BME280;66145;45.188;5.712;2023-10-13T04:27:56;99554.16;;;19.90;65.82
54306;BME280;66145;45.188;5.712;2023-10-13T04:30:50;99529.72;;;19.80;65.86
54306;BME280;66145;45.188;5.712;2023-10-13T04:33:31;99533.25;;;19.80;66.12
54306;BME280;66145;45.188;5.712;2023-10-13T04:38:47;99508.00;;;19.69;66.31
54306;BME280;66145;45.188;5.712;2023-10-13T04:41:54;99545.94;;;19.90;65.78
54306;BME280;66145;45.188;5.712;2023-10-13T04:44:20;99528.75;;;19.84;65.90
54306;BME280;66145;45.188;5.712;2023-10-13T04:47:03;99532.81;;;19.87;65.83
54306;BME280;66145;45.188;5.712;2023-10-13T04:49:31;99538.81;;;19.89;65.58
54306;BME280;66145;45.188;5.712;2023-10-13T04:52:01;99534.44;;;19.88;65.97
54306;BME280;66145;45.188;5.712;2023-10-13T04:54:34;99528.25;;;19.82;65.69
54306;BME280;66145;45.188;5.712;2023-10-13T04:57:16;99517.91;;;19.79;65.73
54306;BME280;66145;45.188;5.712;2023-10-13T04:59:51;99488.44;;;19.62;65.33
54306;BME280;66145;45.188;5.712;2023-10-13T05:02:36;99528.97;;;19.88;65.70
54306;BME280;66145;45.188;5.712;2023-10-13T05:05:06;99522.44;;;19.84;65.90
54306;BME280;66145;45.188;5.712;2023-10-13T05:07:32;99515.31;;;19.83;65.42
54306;BME280;66145;45.188;5.712;2023-10-13T05:10:16;99526.50;;;19.86;65.51
54306;BME280;66145;45.188;5.712;2023-10-13T05:13:00;99527.03;;;19.88;65.60
54306;BME280;66145;45.188;5.712;2023-10-13T05:15:48;99525.25;;;19.93;65.48
54306;BME280;66145;45.188;5.712;2023-10-13T05:18:33;99522.66;;;19.87;65.41
54306;BME280;66145;45.188;5.712;2023-10-13T05:21:17;99533.50;;;19.93;65.70
54306;BME280;66145;45.188;5.712;2023-10-13T05:24:02;99524.47;;;19.92;65.20
54306;BME280;66145;45.188;5.712;2023-10-13T05:26:46;99536.56;;;19.91;65.42
54306;BME280;66145;45.188;5.712;2023-10-13T05:29:30;99524.69;;;19.82;65.44
54306;BME280;66145;45.188;5.712;2023-10-13T05:32:13;99532.53;;;19.88;65.23
54306;BME280;66145;45.188;5.712;2023-10-13T05:34:57;99531.16;;;19.86;65.17
54306;BME280;66145;45.188;5.712;2023-10-13T05:37:41;99486.00;;;19.60;65.28
54306;BME280;66145;45.188;5.712;2023-10-13T05:40:25;99530.38;;;19.85;65.61
54306;BME280;66145;45.188;5.712;2023-10-13T05:43:09;99509.00;;;19.73;65.42
54306;BME280;66145;45.188;5.712;2023-10-13T05:46:00;99501.03;;;19.63;65.50
54306;BME280;66145;45.188;5.712;2023-10-13T05:48:44;99536.06;;;19.89;65.24
54306;BME280;66145;45.188;5.712;2023-10-13T05:51:31;99526.50;;;19.86;65.58
54306;BME280;66145;45.188;5.712;2023-10-13T05:54:03;99538.81;;;19.89;65.39
54306;BME280;66145;45.188;5.712;2023-10-13T05:56:51;99528.25;;;19.82;65.53
54306;BME280;66145;45.188;5.712;2023-10-13T05:59:38;99539.31;;;19.91;65.21
54306;BME280;66145;45.188;5.712;2023-10-13T06:02:23;99538.50;;;19.90;65.43
54306;BME280;66145;45.188;5.712;2023-10-13T06:05:09;99532.69;;;19.92;65.28
54306;BME280;66145;45.188;5.712;2023-10-13T06:07:55;99542.09;;;20.00;64.79
54306;BME280;66145;45.188;5.712;2023-10-13T06:10:40;99543.06;;;19.95;65.05
54306;BME280;66145;45.188;5.712;2023-10-13T06:13:23;99545.94;;;19.90;65.22
54306;BME280;66145;45.188;5.712;2023-10-13T06:16:17;99554.84;;;19.96;65.27
54306;BME280;66145;45.188;5.712;2023-10-13T06:19:01;99564.53;;;19.93;65.31
54306;BME280;66145;45.188;5.712;2023-10-13T06:21:45;99563.19;;;19.90;65.23
54306;BME280;66145;45.188;5.712;2023-10-13T06:24:30;99557.56;;;19.96;64.89
54306;BME280;66145;45.188;5.712;2023-10-13T06:27:15;99574.22;;;19.99;65.27
54306;BME280;66145;45.188;5.712;2023-10-13T06:29:59;99573.88;;;19.92;65.37
54306;BME280;66145;45.188;5.712;2023-10-13T06:32:26;99576.28;;;19.94;65.36
54306;BME280;66145;45.188;5.712;2023-10-13T06:34:55;99569.19;;;19.93;65.54
54306;BME280;66145;45.188;5.712;2023-10-13T06:37:23;99581.50;;;19.95;65.45
54306;BME280;66145;45.188;5.712;2023-10-13T06:39:52;99581.50;;;19.95;65.35
54306;BME280;66145;45.188;5.712;2023-10-13T06:42:24;99582.78;;;19.98;65.46
54306;BME280;66145;45.188;5.712;2023-10-13T06:44:53;99582.34;;;20.04;65.23
54306;BME280;66145;45.188;5.712;2023-10-13T06:47:19;99585.44;;;20.12;65.20
54306;BME280;66145;45.188;5.712;2023-10-13T06:49:45;99550.59;;;19.89;65.15
54306;BME280;66145;45.188;5.712;2023-10-13T06:52:14;99584.81;;;20.15;64.79
54306;BME280;66145;45.188;5.712;2023-10-13T06:54:41;99578.63;;;20.09;65.29
54306;BME280;66145;45.188;5.712;2023-10-13T06:57:07;99593.69;;;20.12;65.39
54306;BME280;66145;45.188;5.712;2023-10-13T06:59:40;99592.53;;;20.04;65.58
54306;BME280;66145;45.188;5.712;2023-10-13T07:02:06;99595.72;;;19.97;64.99
54306;BME280;66145;45.188;5.712;2023-10-13T07:04:33;99583.31;;;19.86;65.52
54306;BME280;66145;45.188;5.712;2023-10-13T07:06:58;99591.88;;;19.84;64.93
54306;BME280;66145;45.188;5.712;2023-10-13T07:09:26;99588.81;;;19.86;64.27
54306;BME280;66145;45.188;5.712;2023-10-13T07:12:05;99598.47;;;20.06;64.25
54306;BME280;66145;45.188;5.712;2023-10-13T07:14:52;99585.53;;;19.98;63.91
54306;BME280;66145;45.188;5.712;2023-10-13T07:17:20;99595.22;;;19.95;64.15
54306;BME280;66145;45.188;5.712;2023-10-13T07:19:52;99589.84;;;19.90;64.20
54306;BME280;66145;45.188;5.712;2023-10-13T07:22:19;99599.00;;;19.85;64.38
54306;BME280;66145;45.188;5.712;2023-10-13T07:24:48;99594.31;;;19.86;64.31
54306;BME280;66145;45.188;5.712;2023-10-13T07:27:23;99598.72;;;19.87;64.45
54306;BME280;66145;45.188;5.712;2023-10-13T07:29:56;99596.06;;;19.82;64.65
54306;BME280;66145;45.188;5.712;2023-10-13T07:32:31;99600.13;;;19.84;64.40
54306;BME280;66145;45.188;5.712;2023-10-13T07:34:59;99598.19;;;19.85;64.48
54306;BME280;66145;45.188;5.712;2023-10-13T07:37:26;99604.28;;;19.82;64.38
54306;BME280;66145;45.188;5.712;2023-10-13T07:39:57;99594.25;;;19.77;64.58
54306;BME280;66145;45.188;5.712;2023-10-13T07:42:24;99598.13;;;19.76;64.23
54306;BME280;66145;45.188;5.712;2023-10-13T07:44:55;99594.56;;;19.75;64.49
54306;BME280;66145;45.188;5.712;2023-10-13T07:47:21;99599.56;;;19.73;64.74
54306;BME280;66145;45.188;5.712;2023-10-13T07:49:49;99598.25;;;19.71;64.87
54306;BME280;66145;45.188;5.712;2023-10-13T07:52:16;99595.31;;;19.67;64.73
54306;BME280;66145;45.188;5.712;2023-10-13T07:54:48;99586.91;;;19.64;64.84
54306;BME280;66145;45.188;5.712;2023-10-13T07:57:15;99595.31;;;19.67;64.48
54306;BME280;66145;45.188;5.712;2023-10-13T07:59:42;99598.56;;;19.69;64.68
54306;BME280;66145;45.188;5.712;2023-10-13T08:02:15;99595.81;;;19.69;64.90
54306;BME280;66145;45.188;5.712;2023-10-13T08:04:58;99600.00;;;19.67;64.65
54306;BME280;66145;45.188;5.712;2023-10-13T08:07:24;99599.16;;;19.66;64.72
54306;BME280;66145;45.188;5.712;2023-10-13T08:09:53;99592.88;;;19.66;64.65
54306;BME280;66145;45.188;5.712;2023-10-13T08:12:18;99592.38;;;19.64;64.56
54306;BME280;66145;45.188;5.712;2023-10-13T08:14:49;99592.09;;;19.65;64.63
54306;BME280;66145;45.188;5.712;2023-10-13T08:17:31;99589.97;;;19.62;64.62
54306;BME280;66145;45.188;5.712;2023-10-13T08:19:57;99587.22;;;19.62;64.80
54306;BME280;66145;45.188;5.712;2023-10-13T08:22:23;99577.38;;;19.61;65.01
54306;BME280;66145;45.188;5.712;2023-10-13T08:24:49;99585.44;;;19.66;64.42
54306;BME280;66145;45.188;5.712;2023-10-13T08:27:18;99575.53;;;19.79;64.10
54306;BME280;66145;45.188;5.712;2023-10-13T08:30:22;99570.63;;;19.67;63.89
54306;BME280;66145;45.188;5.712;2023-10-13T08:32:56;99586.47;;;19.70;64.00
54306;BME280;66145;45.188;5.712;2023-10-13T08:35:29;99575.13;;;19.63;63.92
54306;BME280;66145;45.188;5.712;2023-10-13T08:37:54;99579.78;;;19.63;63.63
54306;BME280;66145;45.188;5.712;2023-10-13T08:40:22;99578.66;;;19.64;63.65
54306;BME280;66145;45.188;5.712;2023-10-13T08:43:10;99569.44;;;19.59;63.46
54306;BME280;66145;45.188;5.712;2023-10-13T08:45:40;99563.44;;;19.57;63.41
54306;BME280;66145;45.188;5.712;2023-10-13T08:48:12;99566.34;;;19.52;62.92
54306;BME280;66145;45.188;5.712;2023-10-13T08:50:51;99558.44;;;19.59;62.81
54306;BME280;66145;45.188;5.712;2023-10-13T08:53:20;99545.78;;;19.50;62.89
54306;BME280;66145;45.188;5.712;2023-10-13T08:56:08;99546.50;;;19.55;62.15
54306;BME280;66145;45.188;5.712;2023-10-13T09:01:28;99561.34;;;19.54;61.89
54306;BME280;66145;45.188;5.712;2023-10-13T09:04:03;99554.75;;;19.55;61.71
54306;BME280;66145;45.188;5.712;2023-10-13T09:06:58;99562.19;;;19.64;61.79
54306;BME280;66145;45.188;5.712;2023-10-13T09:09:53;99545.91;;;19.67;60.85
54306;BME280;66145;45.188;5.712;2023-10-13T09:12:29;99545.00;;;19.72;61.40
54306;BME280;66145;45.188;5.712;2023-10-13T09:15:02;99547.78;;;19.81;59.67
54306;BME280;66145;45.188;5.712;2023-10-13T09:17:49;99547.84;;;19.89;59.94
54306;BME280;66145;45.188;5.712;2023-10-13T09:20:29;99537.06;;;19.93;60.19
54306;BME280;66145;45.188;5.712;2023-10-13T09:23:09;99547.25;;;20.01;60.93
54306;BME280;66145;45.188;5.712;2023-10-13T09:25:35;99536.00;;;20.03;60.41
54306;BME280;66145;45.188;5.712;2023-10-13T09:28:22;99538.78;;;20.12;60.22
54306;BME280;66145;45.188;5.712;2023-10-13T09:30:53;99511.41;;;19.98;60.60
54306;BME280;66145;45.188;5.712;2023-10-13T09:33:20;99520.00;;;20.05;60.57
54306;BME280;66145;45.188;5.712;2023-10-13T09:35:54;99537.00;;;20.16;60.44
54306;BME280;66145;45.188;5.712;2023-10-13T09:38:20;99525.81;;;20.03;59.75
54306;BME280;66145;45.188;5.712;2023-10-13T09:40:46;99506.78;;;19.84;59.96
54306;BME280;66145;45.188;5.712;2023-10-13T09:43:18;99527.09;;;19.97;60.48
54306;BME280;66145;45.188;5.712;2023-10-13T09:45:49;99514.06;;;20.12;59.83
54306;BME280;66145;45.188;5.712;2023-10-13T09:48:44;99514.53;;;20.14;60.05
54306;BME280;66145;45.188;5.712;2023-10-13T09:51:16;99505.50;;;20.13;60.41
54306;BME280;66145;45.188;5.712;2023-10-13T09:56:54;99497.66;;;20.29;60.97
54306;BME280;66145;45.188;5.712;2023-10-13T09:59:32;99487.28;;;20.26;60.72
54306;BME280;66145;45.188;5.712;2023-10-13T10:02:01;99486.50;;;20.34;60.97
54306;BME280;66145;45.188;5.712;2023-10-13T10:04:34;99486.63;;;20.20;61.79
54306;BME280;66145;45.188;5.712;2023-10-13T10:07:10;99465.09;;;20.14;61.87
54306;BME280;66145;45.188;5.712;2023-10-13T10:09:36;99465.13;;;20.23;61.78
54306;BME280;66145;45.188;5.712;2023-10-13T10:12:16;99468.38;;;20.33;61.79
54306;BME280;66145;45.188;5.712;2023-10-13T10:17:45;99462.59;;;20.35;61.87
54306;BME280;66145;45.188;5.712;2023-10-13T10:20:11;99459.84;;;20.35;62.02
54306;BME280;66145;45.188;5.712;2023-10-13T10:22:58;99460.50;;;20.41;62.15
54306;BME280;66145;45.188;5.712;2023-10-13T10:25:33;99451.13;;;20.42;62.28
54306;BME280;66145;45.188;5.712;2023-10-13T10:28:07;99458.72;;;20.45;62.07
54306;BME280;66145;45.188;5.712;2023-10-13T10:30:37;99454.38;;;20.44;62.29
54306;BME280;66145;45.188;5.712;2023-10-13T10:33:08;99433.19;;;20.44;62.38
54306;BME280;66145;45.188;5.712;2023-10-13T10:35:39;99430.44;;;20.44;62.25
54306;BME280;66145;45.188;5.712;2023-10-13T10:40:53;99425.59;;;20.50;62.19
54306;BME280;66145;45.188;5.712;2023-10-13T10:46:07;99413.63;;;20.46;62.62
54306;BME280;66145;45.188;5.712;2023-10-13T10:48:33;99410.72;;;20.42;62.29
54306;BME280;66145;45.188;5.712;2023-10-13T10:51:00;99405.03;;;20.30;62.85
54306;BME280;66145;45.188;5.712;2023-10-13T10:53:33;99394.19;;;20.25;63.10
54306;BME280;66145;45.188;5.712;2023-10-13T10:56:06;99404.03;;;20.17;63.28
54306;BME280;66145;45.188;5.712;2023-10-13T10:58:57;99376.75;;;20.03;63.15
54306;BME280;66145;45.188;5.712;2023-10-13T11:01:24;99390.13;;;20.04;63.28
54306;BME280;66145;45.188;5.712;2023-10-13T11:04:15;99390.13;;;20.04;63.67
54306;BME280;66145;45.188;5.712;2023-10-13T11:06:56;99382.25;;;20.20;63.18
54306;BME280;66145;45.188;5.712;2023-10-13T11:12:12;99379.03;;;20.27;63.15
54306;BME280;66145;45.188;5.712;2023-10-13T11:14:45;99363.66;;;20.09;63.42
54306;BME280;66145;45.188;5.712;2023-10-13T11:17:20;99361.41;;;20.02;63.71
54306;BME280;66145;45.188;5.712;2023-10-13T11:19:52;99351.03;;;19.99;63.81
54306;BME280;66145;45.188;5.712;2023-10-13T11:22:20;99348.13;;;19.95;63.95
54306;BME280;66145;45.188;5.712;2023-10-13T11:24:58;99341.03;;;19.94;64.03
54306;BME280;66145;45.188;5.712;2023-10-13T11:27:34;99333.09;;;19.93;64.02
54306;BME280;66145;45.188;5.712;2023-10-13T11:30:24;99323.38;;;19.86;64.32
54306;BME280;66145;45.188;5.712;2023-10-13T11:33:04;99309.31;;;19.79;64.04
54306;BME280;66145;45.188;5.712;2023-10-13T11:35:33;99313.22;;;19.87;63.93
54306;BME280;66145;45.188;5.712;2023-10-13T11:38:30;99310.19;;;19.88;63.91
54306;BME280;66145;45.188;5.712;2023-10-13T11:41:05;99303.53;;;19.89;63.93
54306;BME280;66145;45.188;5.712;2023-10-13T11:46:12;99295.13;;;19.86;63.94
54306;BME280;66145;45.188;5.712;2023-10-13T11:48:40;99289.13;;;19.84;64.02
54306;BME280;66145;45.188;5.712;2023-10-13T11:51:09;99278.13;;;19.75;64.10
54306;BME280;66145;45.188;5.712;2023-10-13T11:53:45;99291.56;;;19.85;63.76
54306;BME280;66145;45.188;5.712;2023-10-13T11:56:18;99290.44;;;19.86;63.95
54306;BME280;66145;45.188;5.712;2023-10-13T11:58:46;99292.69;;;19.84;64.02
54306;BME280;66145;45.188;5.712;2023-10-13T12:01:12;99284.47;;;19.84;64.06
54306;BME280;66145;45.188;5.712;2023-10-13T12:03:44;99273.50;;;19.84;64.04
54306;BME280;66145;45.188;5.712;2023-10-13T12:06:29;99275.91;;;19.86;63.89
54306;BME280;66145;45.188;5.712;2023-10-13T12:09:12;99271.88;;;19.83;63.95
54306;BME280;66145;45.188;5.712;2023-10-13T12:11:38;99263.63;;;19.83;64.00
54306;BME280;66145;45.188;5.712;2023-10-13T12:14:14;99263.47;;;19.80;64.17
54306;BME280;66145;45.188;5.712;2023-10-13T12:16:47;99249.75;;;19.80;64.61
54306;BME280;66145;45.188;5.712;2023-10-13T12:19:20;99251.84;;;19.83;64.10
54306;BME280;66145;45.188;5.712;2023-10-13T12:21:50;99240.69;;;19.79;64.24
54306;BME280;66145;45.188;5.712;2023-10-13T12:24:19;99226.69;;;19.81;63.94
54306;BME280;66145;45.188;5.712;2023-10-13T12:26:56;99228.75;;;19.84;65.27
54306;BME280;66145;45.188;5.712;2023-10-13T12:29:26;99225.84;;;19.80;64.30
54306;BME280;66145;45.188;5.712;2023-10-13T12:31:55;99225.22;;;19.83;64.63
54306;BME280;66145;45.188;5.712;2023-10-13T12:34:36;99223.25;;;19.84;64.31
54306;BME280;66145;45.188;5.712;2023-10-13T12:37:20;99227.97;;;19.83;64.00
54306;BME280;66145;45.188;5.712;2023-10-13T12:40:09;99215.38;;;19.82;64.12
54306;BME280;66145;45.188;5.712;2023-10-13T12:42:53;99209.38;;;19.80;63.94
54306;BME280;66145;45.188;5.712;2023-10-13T12:45:42;99214.88;;;19.80;64.12
54306;BME280;66145;45.188;5.712;2023-10-13T12:48:27;99175.97;;;19.69;63.79
54306;BME280;66145;45.188;5.712;2023-10-13T12:51:11;99182.56;;;19.77;63.97
54306;BME280;66145;45.188;5.712;2023-10-13T12:53:49;99183.41;;;19.78;63.68
54306;BME280;66145;45.188;5.712;2023-10-13T12:56:16;99182.56;;;19.77;63.84
54306;BME280;66145;45.188;5.712;2023-10-13T12:58:43;99176.16;;;19.73;64.04
54306;BME280;66145;45.188;5.712;2023-10-13T13:01:25;99176.16;;;19.73;63.39
54306;BME280;66145;45.188;5.712;2023-10-13T13:03:52;99145.78;;;19.69;63.41
54306;BME280;66145;45.188;5.712;2023-10-13T13:06:23;99155.47;;;19.75;63.10
54306;BME280;66145;45.188;5.712;2023-10-13T13:08:55;99153.03;;;19.74;63.74
54306;BME280;66145;45.188;5.712;2023-10-13T13:11:22;99139.31;;;19.74;63.36
54306;BME280;66145;45.188;5.712;2023-10-13T13:13:48;99141.59;;;19.72;63.18
54306;BME280;66145;45.188;5.712;2023-10-13T13:16:17;99138.19;;;19.75;62.81
54306;BME280;66145;45.188;5.712;2023-10-13T13:18:44;99154.66;;;19.75;61.93
54306;BME280;66145;45.188;5.712;2023-10-13T13:21:10;99132.06;;;19.69;61.36
54306;BME280;66145;45.188;5.712;2023-10-13T13:23:46;99133.66;;;19.70;62.77
54306;BME280;66145;45.188;5.712;2023-10-13T13:26:11;99143.84;;;19.70;62.10
54306;BME280;66145;45.188;5.712;2023-10-13T13:28:46;99126.25;;;19.62;62.51
54306;BME280;66145;45.188;5.712;2023-10-13T13:31:19;99137.25;;;19.62;62.48
54306;BME280;66145;45.188;5.712;2023-10-13T13:33:50;99121.91;;;19.61;62.35
54306;BME280;66145;45.188;5.712;2023-10-13T13:36:16;99129.50;;;19.64;62.27
54306;BME280;66145;45.188;5.712;2023-10-13T13:38:45;99136.13;;;19.63;62.80
54306;BME280;66145;45.188;5.712;2023-10-13T13:41:16;99130.63;;;19.63;62.02
54306;BME280;66145;45.188;5.712;2023-10-13T13:43:50;99129.16;;;19.66;62.26
54306;BME280;66145;45.188;5.712;2023-10-13T13:46:20;99123.19;;;19.64;61.33
54306;BME280;66145;45.188;5.712;2023-10-13T13:48:59;99116.56;;;19.65;61.57
54306;BME280;66145;45.188;5.712;2023-10-13T13:51:29;99126.91;;;19.68;61.28
54306;BME280;66145;45.188;5.712;2023-10-13T13:53:57;99129.31;;;19.69;62.00
54306;BME280;66145;45.188;5.712;2023-10-13T13:56:24;99130.44;;;19.68;61.86
54306;BME280;66145;45.188;5.712;2023-10-13T13:58:52;99120.44;;;19.64;61.87
54306;BME280;66145;45.188;5.712;2023-10-13T14:01:19;99122.88;;;19.65;62.21
54306;BME280;66145;45.188;5.712;2023-10-13T14:03:48;99115.75;;;19.82;61.84